Time;durP1;ratioP1;P1;durP2;ratioP2;P2;SDS_P1;SDS_P2;PMS_P1;PMS_P2;Temp;Humidity;BMP_temperature;BMP_pressure;BME280_temperature;BME280_humidity;BME280_pressure;Samples;Min_cycle;Max_cycle;Signal;HPM_P1;HPM_P2
2022/02/03 00:04:51;;;;;;;22.48;11.45;;;;;;;6.90;75.63;100154.44;5092078;28;20412;-62
2022/02/03 00:07:25;;;;;;;29.27;12.65;;;;;;;6.89;75.84;100151.84;5092059;28;20044;-59
2022/02/03 00:26:25;;;;;;;57.17;13.45;;;;;;;6.96;76.80;100149.88;5091515;28;20052;-61
2022/02/03 00:28:51;;;;;;;73.88;15.10;;;;;;;6.97;77.06;100143.72;5090109;28;20040;-60
2022/02/03 00:34:16;;;;;;;97.68;16.00;;;;;;;7.01;77.24;100137.47;5091307;28;20386;-60
2022/02/03 00:50:47;;;;;;;194.20;18.65;;;;;;;7.13;77.78;100131.78;5090854;28;20117;-60
2022/02/03 00:53:15;;;;;;;181.18;18.88;;;;;;;7.16;77.98;100129.06;5090684;28;20048;-61
2022/02/03 00:55:47;;;;;;;218.60;19.25;;;;;;;7.16;77.74;100123.84;5089768;28;20097;-59
2022/02/03 00:58:17;;;;;;;106.20;15.88;;;;;;;7.19;77.90;100124.63;5089665;28;20052;-61
2022/02/03 01:00:50;;;;;;;104.15;14.00;;;;;;;7.21;77.99;100123.66;5070754;28;20178;-63
2022/02/03 01:03:21;;;;;;;87.03;13.52;;;;;;;7.25;78.17;100120.00;5069839;28;20049;-59
2022/02/03 01:05:49;;;;;;;111.65;14.52;;;;;;;7.27;78.11;100114.72;5080861;28;20048;-59
2022/02/03 01:08:20;;;;;;;137.30;14.95;;;;;;;7.28;78.19;100114.66;5089587;28;20082;-59
2022/02/03 01:10:56;;;;;;;92.47;13.02;;;;;;;7.31;78.47;100121.56;5089167;28;20048;-59
2022/02/03 01:16:09;;;;;;;116.53;15.23;;;;;;;7.37;78.10;100120.47;5090526;28;20048;-60
2022/02/03 01:19:04;;;;;;;146.73;15.73;;;;;;;7.40;78.36;100113.34;5090700;28;20044;-59
2022/02/03 01:21:37;;;;;;;173.05;17.02;;;;;;;7.41;78.41;100106.34;5090330;28;20056;-60
2022/02/03 01:43:22;;;;;;;275.77;24.17;;;;;;;7.55;78.46;100098.81;5094667;28;20052;-60
2022/02/03 01:45:55;;;;;;;289.52;23.92;;;;;;;7.57;78.81;100096.13;5094291;28;20504;-62
2022/02/03 01:49:02;;;;;;;317.55;23.63;;;;;;;7.58;78.84;100097.81;5094350;28;20047;-59
2022/02/03 01:51:41;;;;;;;391.75;26.35;;;;;;;7.62;78.80;100088.09;5093979;28;20040;-59
2022/02/03 01:54:08;;;;;;;254.60;20.55;;;;;;;7.65;79.03;100088.81;5092697;28;20048;-59
2022/02/03 01:56:38;;;;;;;366.50;27.67;;;;;;;7.67;79.12;100086.16;5094172;28;20052;-59
2022/02/03 01:59:19;;;;;;;265.80;22.02;;;;;;;7.66;79.11;100087.91;5092769;28;20040;-63
2022/02/03 02:01:49;;;;;;;323.27;24.13;;;;;;;7.71;79.18;100077.25;5093054;28;20544;-59
2022/02/03 02:04:37;;;;;;;283.63;21.77;;;;;;;7.72;79.36;100083.31;5094228;28;20048;-60
2022/02/03 02:07:18;;;;;;;332.58;23.90;;;;;;;7.76;79.35;100074.44;5093887;28;20508;-59
2022/02/03 02:10:59;;;;;;;268.00;22.58;;;;;;;7.80;79.15;100073.38;5093982;28;20048;-59
2022/02/03 02:12:59;;;;;;;320.65;22.05;;;;;;;7.84;79.41;100072.34;5086594;28;20102;-59
2022/02/03 02:18:33;;;;;;;273.88;18.58;;;;;;;7.89;79.37;100065.16;5094044;28;20051;-59
2022/02/03 02:41:14;;;;;;;305.20;23.15;;;;;;;8.29;80.38;100033.78;5093527;28;20063;-60
2022/02/03 02:43:52;;;;;;;313.52;21.70;;;;;;;8.34;80.41;100033.59;5093377;28;20070;-61
2022/02/03 02:46:45;;;;;;;325.75;25.00;;;;;;;8.40;80.45;100022.84;5092320;28;20385;-60
2022/02/03 02:49:51;;;;;;;284.15;24.15;;;;;;;8.46;80.40;100024.34;5092758;28;20121;-60
2022/02/03 02:52:27;;;;;;;375.75;24.67;;;;;;;8.55;80.17;100023.09;5092093;28;20176;-60
2022/02/03 03:36:55;;;;;;;76.93;23.95;;;;;;;9.53;80.87;99989.72;5092449;28;20056;-60
2022/02/03 03:39:36;;;;;;;44.30;23.77;;;;;;;9.54;81.16;99982.69;5092378;28;20048;-59
2022/02/03 03:42:05;;;;;;;44.17;23.50;;;;;;;9.61;80.89;99977.03;5091144;28;20066;-59
2022/02/03 03:44:34;;;;;;;41.38;24.08;;;;;;;9.64;80.79;99976.91;5092499;28;20454;-59
2022/02/03 03:47:04;;;;;;;42.70;24.15;;;;;;;9.67;80.78;99973.28;5090517;28;20060;-60
2022/02/03 03:49:45;;;;;;;40.63;23.80;;;;;;;9.69;80.64;99974.06;5091997;28;20048;-59
2022/02/03 03:52:18;;;;;;;41.90;24.83;;;;;;;9.76;80.54;99977.22;5092186;28;20125;-59
2022/02/03 03:55:07;;;;;;;48.17;27.08;;;;;;;9.76;80.60;99970.19;5090798;28;20044;-61
2022/02/03 03:57:56;;;;;;;46.22;26.55;;;;;;;9.82;80.71;99970.78;5091998;28;20068;-59
2022/02/03 04:41:18;;;;;;;52.83;32.28;;;;;;;10.08;80.31;99927.38;5091089;28;20044;-59
2022/02/03 04:51:06;;;;;;;50.67;33.33;;;;;;;10.14;80.38;99927.06;5090926;28;20048;-59
2022/02/03 04:57:08;;;;;;;48.50;31.15;;;;;;;10.14;79.81;99937.56;5090665;28;20741;-62
2022/02/03 05:15:13;;;;;;;58.28;36.33;;;;;;;10.18;80.21;99914.59;5081833;28;20044;-60
2022/02/03 05:44:14;;;;;;;66.43;40.08;;;;;;;10.20;80.12;99878.53;5090172;28;20055;-61
2022/02/03 06:06:02;;;;;;;71.85;42.08;;;;;;;10.23;80.18;99844.19;5090149;28;20048;-60
2022/02/03 06:08:55;;;;;;;80.20;43.70;;;;;;;10.21;80.01;99846.03;5088987;28;20549;-60
2022/02/03 06:14:56;;;;;;;71.57;42.03;;;;;;;10.19;80.25;99837.38;5090577;28;20568;-60
2022/02/03 06:17:06;;;;;;;69.65;41.15;;;;;;;10.21;80.22;99829.41;5084730;28;20056;-61
2022/02/03 06:22:41;;;;;;;80.57;41.85;;;;;;;10.18;80.06;99822.53;5094055;28;20113;-61
2022/02/03 06:27:53;;;;;;;67.18;39.17;;;;;;;10.18;79.98;99825.19;5093668;28;20048;-60
2022/02/03 06:30:21;;;;;;;73.75;42.58;;;;;;;10.17;80.23;99826.13;5093788;28;20048;-60
2022/02/03 06:32:48;;;;;;;69.75;41.22;;;;;;;10.15;80.09;99834.09;5072361;28;20492;-61
2022/02/03 06:35:17;;;;;;;72.88;40.65;;;;;;;10.14;80.15;99824.47;5073490;28;20048;-60
2022/02/03 06:37:47;;;;;;;73.88;40.85;;;;;;;10.16;80.07;99834.91;5084442;28;20050;-61
2022/02/03 06:40:15;;;;;;;63.08;38.25;;;;;;;10.14;80.20;99827.09;5093295;28;20048;-61
2022/02/03 06:42:43;;;;;;;65.95;39.38;;;;;;;10.13;80.10;99832.47;5092291;28;20204;-59
2022/02/03 06:45:23;;;;;;;64.80;38.83;;;;;;;10.13;79.95;99819.31;5091937;28;20105;-62
2022/02/03 06:48:02;;;;;;;63.42;36.65;;;;;;;10.13;80.10;99825.41;5093350;28;20687;-60
2022/02/03 06:50:38;;;;;;;65.57;40.22;;;;;;;10.14;79.93;99834.16;5092827;28;20048;-61
2022/02/03 06:53:20;;;;;;;67.40;38.58;;;;;;;10.14;80.22;99829.72;5092391;28;20496;-60
2022/02/03 06:58:57;;;;;;;63.25;36.78;;;;;;;10.13;79.66;99808.81;5069768;28;20048;-60
2022/02/03 07:01:29;;;;;;;66.22;36.88;;;;;;;10.11;79.72;99826.44;5070196;28;20059;-59
2022/02/03 07:04:02;;;;;;;61.80;37.58;;;;;;;10.10;79.67;99822.94;5081267;28;20492;-62
2022/02/03 07:06:30;;;;;;;;;;;;;;;10.07;78.64;99815.22;5091944;28;20044;-61
2022/02/03 07:09:00;;;;;;;58.97;33.17;;;;;;;10.10;79.29;99817.69;5091520;28;20369;-62
2022/02/03 07:11:26;;;;;;;56.65;34.42;;;;;;;10.06;79.40;99831.94;5091557;28;20079;-59
2022/02/03 07:13:53;;;;;;;63.13;38.78;;;;;;;10.03;79.57;99819.78;5092947;28;20049;-62
2022/02/03 07:16:19;;;;;;;56.50;34.88;;;;;;;10.01;79.66;99819.03;5070879;28;20508;-59
2022/02/03 07:18:46;;;;;;;53.47;32.92;;;;;;;9.99;79.59;99826.16;5072267;28;20086;-61
2022/02/03 07:21:13;;;;;;;49.97;30.83;;;;;;;9.98;79.62;99828.88;5072178;28;20041;-59
2022/02/03 07:23:40;;;;;;;50.22;32.03;;;;;;;9.95;79.46;99836.94;5074739;28;20117;-60
2022/02/03 07:26:07;;;;;;;49.83;28.85;;;;;;;9.93;79.56;99842.25;5091483;28;20568;-61
2022/02/03 07:28:34;;;;;;;49.22;28.83;;;;;;;9.91;79.46;99838.88;5092593;28;20054;-60
2022/02/03 07:31:03;;;;;;;44.28;27.73;;;;;;;9.88;79.47;99828.50;5092202;28;20047;-60
2022/02/03 07:33:33;;;;;;;44.20;29.08;;;;;;;9.85;79.62;99837.41;5091181;28;20553;-60
2022/02/03 07:35:59;;;;;;;39.67;26.95;;;;;;;9.85;79.40;99834.78;5091009;28;20602;-61
2022/02/03 07:38:26;;;;;;;41.38;27.15;;;;;;;9.84;79.50;99827.84;5091992;28;20051;-59
2022/02/03 07:40:53;;;;;;;39.80;25.17;;;;;;;9.82;79.63;99821.78;5091054;28;21045;-61
2022/02/03 07:43:21;;;;;;;36.78;24.00;;;;;;;9.81;79.57;99816.63;5092407;28;20098;-61
2022/02/03 07:45:48;;;;;;;36.88;23.42;;;;;;;9.78;79.65;99813.22;5092147;28;20101;-61
2022/02/03 07:48:18;;;;;;;36.15;23.42;;;;;;;9.75;79.06;99792.34;5091051;28;20067;-61
2022/02/03 07:50:45;;;;;;;35.63;22.73;;;;;;;9.73;79.26;99793.38;5090418;28;20427;-60
2022/02/03 07:53:11;;;;;;;30.80;20.67;;;;;;;9.73;79.28;99798.63;5091303;28;20047;-59
2022/02/03 07:55:38;;;;;;;35.17;21.02;;;;;;;9.71;79.36;99782.94;5091138;28;20480;-61
2022/02/03 07:58:04;;;;;;;35.22;22.10;;;;;;;9.70;79.36;99810.16;5092143;28;20056;-59
2022/02/03 08:00:31;;;;;;;30.73;20.80;;;;;;;9.68;79.45;99785.72;5091623;28;20496;-60
2022/02/03 08:03:15;;;;;;;33.80;20.52;;;;;;;9.69;79.38;99786.56;5090825;28;20118;-61
2022/02/03 08:05:47;;;;;;;35.85;21.30;;;;;;;9.67;79.05;99788.41;5092168;28;20052;-59
2022/02/03 08:08:29;;;;;;;32.97;20.20;;;;;;;9.65;79.21;99804.31;5090707;28;20044;-59
2022/02/03 08:11:00;;;;;;;26.20;17.40;;;;;;;9.64;79.12;99802.56;5091583;28;20305;-58
2022/02/03 08:13:32;;;;;;;22.98;14.93;;;;;;;9.62;79.09;99807.94;5090488;28;20101;-62
2022/02/03 08:16:10;;;;;;;17.98;12.32;;;;;;;9.57;78.88;99803.84;5091551;28;20414;-61
2022/02/03 08:18:40;;;;;;;17.77;11.38;;;;;;;9.55;78.53;99810.94;5090548;28;20044;-62
2022/02/03 08:21:10;;;;;;;18.90;11.30;;;;;;;9.51;78.12;99805.00;5091374;28;20097;-61
2022/02/03 08:31:38;;;;;;;15.10;9.43;;;;;;;9.38;78.03;99796.91;5091274;28;20044;-59
2022/02/03 08:34:05;;;;;;;15.57;8.82;;;;;;;9.36;78.43;99783.00;5091479;28;20105;-62
2022/02/03 08:36:37;;;;;;;16.30;9.38;;;;;;;9.31;77.96;99771.88;5091247;28;20126;-60
2022/02/03 08:39:07;;;;;;;12.25;9.40;;;;;;;9.29;78.30;99773.72;5091246;28;20052;-61
2022/02/03 08:41:35;;;;;;;15.57;10.00;;;;;;;9.23;78.36;99783.63;5090016;28;20483;-60
2022/02/03 08:44:02;;;;;;;14.52;9.50;;;;;;;9.23;78.52;99796.75;5090669;28;20055;-59
2022/02/03 08:46:28;;;;;;;15.98;9.75;;;;;;;9.23;78.45;99796.75;5091118;28;20043;-59
2022/02/03 08:48:57;;;;;;;20.52;9.55;;;;;;;9.23;78.65;99788.03;5091193;28;20048;-60
2022/02/03 08:51:23;;;;;;;13.00;8.70;;;;;;;9.23;78.47;99788.03;5089348;28;20101;-60
2022/02/03 08:53:54;;;;;;;13.95;9.65;;;;;;;9.22;78.25;99781.06;5091080;28;20052;-59
2022/02/03 08:57:05;;;;;;;11.95;7.47;;;;;;;9.24;78.49;99773.97;5091118;28;20524;-63
2022/02/03 08:59:35;;;;;;;10.87;7.23;;;;;;;9.25;78.26;99765.16;5090365;28;20105;-60
2022/02/03 09:37:48;;;;;;;13.77;8.90;;;;;;;9.23;76.50;99770.50;5090651;28;20056;-60
2022/02/03 09:40:38;;;;;;;14.88;8.70;;;;;;;9.23;76.71;99769.63;5090260;28;20398;-61
2022/02/03 09:51:52;;;;;;;12.85;9.10;;;;;;;9.29;76.14;99744.84;5090120;28;20546;-60
2022/02/03 09:54:36;;;;;;;13.38;8.77;;;;;;;9.31;76.95;99748.25;5092056;28;20047;-60
2022/02/03 09:57:17;;;;;;;15.85;9.43;;;;;;;9.30;77.00;99744.75;5094952;28;20074;-61
2022/02/03 09:59:58;;;;;;;17.17;9.80;;;;;;;9.31;76.82;99740.38;5094165;28;20095;-60
2022/02/03 10:02:29;;;;;;;12.05;8.45;;;;;;;9.30;76.92;99738.69;5094454;28;20074;-59
2022/02/03 10:05:01;;;;;;;21.20;9.98;;;;;;;9.29;76.89;99753.56;5094330;28;20040;-59
2022/02/03 10:07:34;;;;;;;13.02;9.18;;;;;;;9.29;77.05;99740.44;5094344;28;20408;-59
2022/02/03 10:10:07;;;;;;;13.30;9.30;;;;;;;9.28;76.82;99736.13;5092694;28;20056;-61
2022/02/03 10:12:40;;;;;;;18.45;9.85;;;;;;;9.28;76.65;99746.63;5093931;28;20087;-61
2022/02/03 10:15:11;;;;;;;16.87;9.57;;;;;;;9.31;76.78;99740.38;5092997;28;20040;-59
2022/02/03 10:17:45;;;;;;;13.48;9.82;;;;;;;9.28;76.00;99746.63;5094058;28;20044;-59
2022/02/03 10:20:15;;;;;;;14.43;9.00;;;;;;;9.30;76.87;99744.75;5093774;28;20055;-59
2022/02/03 10:22:48;;;;;;;12.15;8.52;;;;;;;9.30;76.28;99757.06;5093898;28;20048;-59
2022/02/03 10:25:23;;;;;;;17.23;10.43;;;;;;;9.29;75.48;99745.69;5094066;28;20389;-61
2022/02/03 10:28:00;;;;;;;14.05;9.50;;;;;;;9.31;76.52;99743.81;5092561;28;20059;-59
2022/02/03 10:30:36;;;;;;;13.05;9.60;;;;;;;9.33;76.74;99731.47;5092261;28;20044;-61
2022/02/03 10:33:03;;;;;;;15.15;11.15;;;;;;;9.34;76.85;99729.69;5093688;28;20058;-59
2022/02/03 10:35:55;;;;;;;15.35;10.82;;;;;;;9.32;76.50;99729.78;5093564;28;20084;-60
2022/02/03 10:42:01;;;;;;;14.40;10.23;;;;;;;9.31;76.23;99727.22;5093249;28;20122;-59
2022/02/03 11:00:52;;;;;;;13.75;10.00;;;;;;;9.19;77.53;99707.72;5092772;28;20084;-60
2022/02/03 11:12:50;;;;;;;16.45;10.73;;;;;;;9.19;77.48;99710.34;5092647;28;20054;-60
2022/02/03 11:15:17;;;;;;;15.50;10.40;;;;;;;9.18;77.85;99712.09;5091604;28;20055;-60
2022/02/03 11:17:47;;;;;;;18.73;10.60;;;;;;;9.16;77.32;99706.06;5093262;28;20048;-58
2022/02/03 11:20:20;;;;;;;14.00;10.55;;;;;;;9.17;77.67;99707.78;5092641;28;20109;-62
2022/02/03 11:23:09;;;;;;;15.30;10.68;;;;;;;9.19;78.18;99692.78;5091591;28;20059;-60
2022/02/03 11:50:53;;;;;;;13.55;8.85;;;;;;;9.07;76.99;99662.78;5092372;28;20708;-60
2022/02/03 12:17:51;;;;;;;13.18;8.48;;;;;;;9.32;77.71;99608.09;5091033;28;20078;-64
2022/02/03 12:21:00;;;;;;;17.40;9.25;;;;;;;9.32;74.32;99606.31;5091604;28;20139;-61
2022/02/03 12:23:36;;;;;;;13.82;8.85;;;;;;;9.39;76.83;99593.69;5091500;28;20086;-60
2022/02/03 12:26:11;;;;;;;11.05;8.80;;;;;;;9.42;76.38;99595.31;5091560;28;20561;-60
2022/02/03 12:28:50;;;;;;;11.70;8.52;;;;;;;9.46;77.31;99588.97;5091673;28;20117;-62
2022/02/03 12:39:11;;;;;;;14.27;8.32;;;;;;;9.55;75.53;99571.81;5091343;28;20553;-60
2022/02/03 12:44:21;;;;;;;13.82;7.75;;;;;;;9.62;76.26;99567.94;5091184;28;20450;-62
2022/02/03 12:46:48;;;;;;;9.65;7.03;;;;;;;9.66;76.34;99553.69;5089903;28;20051;-59
2022/02/03 12:49:20;;;;;;;12.82;7.20;;;;;;;9.65;74.87;99557.25;5091021;28;20051;-59
2022/02/03 12:51:50;;;;;;;9.02;6.88;;;;;;;9.67;75.54;99558.00;5090949;28;20105;-61
2022/02/03 12:54:16;;;;;;;11.70;7.28;;;;;;;9.68;75.58;99551.78;5091130;28;20057;-62
2022/02/03 12:56:43;;;;;;;10.75;6.65;;;;;;;9.69;75.88;99550.03;5090954;28;20134;-60
2022/02/03 12:59:14;;;;;;;10.45;6.78;;;;;;;9.70;76.08;99544.69;5090680;28;20533;-61
2022/02/03 13:01:43;;;;;;;11.02;6.70;;;;;;;9.73;76.03;99541.91;5091189;28;20040;-60
2022/02/03 13:04:18;;;;;;;12.00;7.22;;;;;;;9.75;76.01;99537.38;5089702;28;20094;-60
2022/02/03 13:07:00;;;;;;;10.82;6.85;;;;;;;9.74;74.86;99527.81;5090835;28;20052;-60
2022/02/03 13:09:35;;;;;;;11.70;6.03;;;;;;;9.75;74.98;99521.59;5090734;28;20101;-62
2022/02/03 13:12:23;;;;;;;10.25;6.75;;;;;;;9.73;73.63;99520.00;5089505;28;20316;-60
2022/02/03 13:14:54;;;;;;;8.90;6.50;;;;;;;9.75;75.15;99518.97;5090897;28;20080;-60
2022/02/03 13:17:31;;;;;;;11.07;6.30;;;;;;;9.77;75.69;99508.38;5090701;28;20044;-59
2022/02/03 13:20:18;;;;;;;9.63;5.93;;;;;;;9.76;73.04;99514.59;5089270;28;20048;-59
2022/02/03 13:22:57;;;;;;;10.70;6.28;;;;;;;9.81;75.00;99511.66;5090742;28;20139;-62
2022/02/03 13:25:34;;;;;;;11.65;6.15;;;;;;;9.78;74.98;99513.56;5089674;28;20629;-60
2022/02/03 13:28:10;;;;;;;8.85;6.55;;;;;;;9.78;73.91;99524.06;5089782;28;20052;-60
2022/02/03 13:30:48;;;;;;;9.38;6.15;;;;;;;9.80;74.48;99515.25;5094521;28;20557;-60
2022/02/03 13:33:25;;;;;;;13.50;6.25;;;;;;;9.76;73.81;99510.16;5094690;28;20062;-60
2022/02/03 13:36:01;;;;;;;11.00;6.80;;;;;;;9.76;74.16;99504.06;5094762;28;20090;-61
2022/02/03 13:41:13;;;;;;;10.85;6.63;;;;;;;9.73;72.27;99497.22;5094639;28;20052;-60
2022/02/03 13:43:42;;;;;;;12.63;6.15;;;;;;;9.76;73.96;99501.44;5094882;28;20113;-61
2022/02/03 13:46:10;;;;;;;12.85;6.75;;;;;;;9.75;73.83;99497.09;5094653;28;20055;-59
2022/02/03 13:48:39;;;;;;;11.35;6.68;;;;;;;9.74;73.33;99506.78;5094569;28;20089;-59
2022/02/03 13:51:10;;;;;;;9.73;5.40;;;;;;;9.74;74.21;99495.41;5094079;28;20052;-60
2022/02/03 13:53:43;;;;;;;9.85;5.45;;;;;;;9.75;74.26;99491.84;5094612;28;20067;-60
2022/02/03 14:11:37;;;;;;;7.35;5.95;;;;;;;9.78;74.45;99491.66;5090808;28;20109;-61
2022/02/03 14:21:22;;;;;;;11.40;6.57;;;;;;;9.78;73.89;99474.13;5093743;28;20056;-61
2022/02/03 14:29:14;;;;;;;12.38;6.68;;;;;;;9.76;74.04;99473.34;5093835;28;20052;-61
2022/02/03 14:31:42;;;;;;;9.43;6.30;;;;;;;9.73;73.56;99468.28;5092837;28;20056;-60
2022/02/03 14:34:15;;;;;;;13.18;6.47;;;;;;;9.71;73.72;99467.53;5092361;28;20550;-61
2022/02/03 14:36:46;;;;;;;13.57;6.95;;;;;;;9.70;73.62;99468.47;5092672;28;20044;-60
2022/02/03 14:39:18;;;;;;;9.52;6.15;;;;;;;9.70;73.96;99465.84;5092297;28;20048;-61
2022/02/03 14:41:47;;;;;;;12.30;6.90;;;;;;;9.70;73.38;99468.47;5091304;28;20044;-61
2022/02/03 14:44:17;;;;;;;11.10;6.05;;;;;;;9.69;73.17;99455.41;5092354;28;20332;-63
2022/02/03 14:46:45;;;;;;;12.60;6.47;;;;;;;9.68;73.29;99458.97;5092384;28;20066;-59
2022/02/03 14:49:12;;;;;;;12.65;6.82;;;;;;;9.68;73.25;99453.72;5093161;28;20426;-59
2022/02/03 14:59:38;;;;;;;10.07;6.15;;;;;;;9.70;73.57;99449.22;5093054;28;20081;-60
2022/02/03 15:02:08;;;;;;;10.90;6.55;;;;;;;9.70;73.55;99429.03;5092965;28;20051;-59
2022/02/03 15:04:37;;;;;;;12.55;6.28;;;;;;;9.69;73.63;99429.97;5093140;28;20044;-60
2022/02/03 15:07:05;;;;;;;11.45;6.10;;;;;;;9.69;73.62;99431.75;5092025;28;20052;-60
2022/02/03 15:12:24;;;;;;;11.85;6.22;;;;;;;9.67;73.41;99426.59;5093057;28;20048;-59
2022/02/03 15:14:51;;;;;;;10.40;6.70;;;;;;;9.66;73.51;99424.91;5093164;28;20432;-60
2022/02/03 15:17:21;;;;;;;12.27;7.25;;;;;;;9.65;73.62;99423.22;5092962;28;20092;-61
2022/02/03 15:19:49;;;;;;;12.32;6.85;;;;;;;9.62;72.91;99436.53;5091474;28;20056;-59
2022/02/03 15:22:15;;;;;;;13.90;7.25;;;;;;;9.60;73.08;99438.38;5092830;28;20439;-61
2022/02/03 15:24:42;;;;;;;11.27;7.45;;;;;;;9.56;73.23;99450.84;5092646;28;20047;-62
2022/02/03 15:27:10;;;;;;;15.52;7.10;;;;;;;9.54;73.54;99439.59;5092540;28;20078;-59
2022/02/03 15:29:36;;;;;;;11.23;7.57;;;;;;;9.50;73.22;99440.72;5092663;28;20589;-60
2022/02/03 15:32:03;;;;;;;14.85;7.88;;;;;;;9.47;73.50;99433.00;5092437;28;20051;-59
2022/02/03 15:34:35;;;;;;;10.68;7.07;;;;;;;9.44;73.60;99430.53;5092572;28;20101;-60
2022/02/03 15:37:06;;;;;;;10.05;7.18;;;;;;;9.38;73.51;99437.00;5092447;28;20044;-60
2022/02/03 15:39:39;;;;;;;13.02;7.25;;;;;;;9.36;73.84;99423.13;5089776;28;20044;-62
2022/02/03 15:42:06;;;;;;;14.15;8.30;;;;;;;9.31;74.19;99414.66;5090222;28;20047;-60
2022/02/03 15:44:38;;;;;;;14.40;8.80;;;;;;;9.28;74.02;99420.06;5092503;28;20081;-61
2022/02/03 15:47:13;;;;;;;10.13;7.60;;;;;;;9.25;74.55;99437.72;5092481;28;20048;-60
2022/02/03 16:00:59;;;;;;;11.75;8.50;;;;;;;9.12;74.66;99413.91;5091871;28;20066;-60
2022/02/03 16:17:11;;;;;;;14.52;8.93;;;;;;;9.05;75.50;99393.34;5091725;28;20135;-59
2022/02/03 16:19:50;;;;;;;14.75;9.35;;;;;;;9.05;75.57;99393.34;5090860;28;20040;-60
2022/02/03 16:54:53;;;;;;;13.02;10.27;;;;;;;8.69;76.21;99397.94;5091134;28;20091;-61
2022/02/03 16:57:24;;;;;;;19.33;11.82;;;;;;;8.68;76.55;99394.44;5089683;28;20672;-59
2022/02/03 17:00:01;;;;;;;22.38;12.02;;;;;;;8.65;76.63;99399.91;5088494;28;20097;-60
2022/02/03 17:02:47;;;;;;;16.65;12.20;;;;;;;8.64;76.48;99390.34;5089662;28;20121;-61
2022/02/03 17:05:14;;;;;;;19.42;12.80;;;;;;;8.62;76.76;99389.56;5090143;28;20130;-60
2022/02/03 17:07:41;;;;;;;18.00;11.73;;;;;;;8.61;76.75;99390.50;5090522;28;20504;-61
2022/02/03 17:10:08;;;;;;;19.38;12.85;;;;;;;8.60;76.88;99389.63;5088490;28;20047;-60
2022/02/03 17:12:34;;;;;;;16.83;11.88;;;;;;;8.60;77.15;99394.06;5090609;28;20565;-60
2022/02/03 17:15:01;;;;;;;18.83;13.13;;;;;;;8.59;76.92;99397.59;5090275;28;20040;-59
2022/02/03 17:17:28;;;;;;;17.30;13.00;;;;;;;8.60;77.22;99401.94;5089636;28;20105;-59
2022/02/03 17:19:54;;;;;;;21.20;13.45;;;;;;;8.58;76.62;99393.28;5090248;28;20044;-62
2022/02/03 17:22:28;;;;;;;17.98;13.30;;;;;;;8.56;76.91;99395.97;5090841;28;20097;-60
2022/02/03 17:25:15;;;;;;;14.95;12.63;;;;;;;8.55;77.31;99399.53;5090618;28;20052;-61
2022/02/03 17:27:53;;;;;;;21.85;14.73;;;;;;;8.55;77.05;99385.56;5090706;28;20105;-59
2022/02/03 17:30:28;;;;;;;19.30;13.02;;;;;;;8.54;77.33;99390.00;5090251;28;20052;-60
2022/02/03 18:02:59;;;;;;;19.73;13.50;;;;;;;8.54;77.31;99395.22;5090343;28;20105;-63
2022/02/03 18:06:31;;;;;;;18.95;13.57;;;;;;;8.52;77.53;99397.03;5076098;28;20542;-60
2022/02/03 18:08:56;;;;;;;20.95;13.68;;;;;;;8.52;77.67;99397.03;5088011;28;20048;-59
2022/02/03 18:19:41;;;;;;;18.55;14.73;;;;;;;8.53;77.79;99408.44;5093335;28;20546;-60
2022/02/03 18:30:16;;;;;;;20.35;15.73;;;;;;;8.53;77.81;99397.94;5093096;28;20055;-58
2022/02/03 18:56:30;;;;;;;20.52;15.85;;;;;;;8.52;77.69;99383.94;5093595;28;20090;-58
2022/02/03 19:10:56;;;;;;;21.13;15.93;;;;;;;8.48;77.74;99383.25;5092782;28;20751;-62
2022/02/03 19:15:51;;;;;;;21.40;16.33;;;;;;;8.47;77.92;99380.72;5092080;28;20105;-60
2022/02/03 19:26:34;;;;;;;20.25;16.40;;;;;;;8.46;78.11;99374.63;5081712;28;20071;-62
2022/02/03 20:09:56;;;;;;;22.33;17.30;;;;;;;8.46;77.99;99381.66;5091373;28;20125;-60
2022/02/03 20:12:23;;;;;;;22.88;17.10;;;;;;;8.47;77.63;99378.94;5091021;28;20131;-60
2022/02/03 20:14:50;;;;;;;26.13;17.17;;;;;;;8.47;77.90;99373.72;5091777;28;20471;-60
2022/02/03 20:17:22;;;;;;;22.83;17.50;;;;;;;8.46;78.12;99372.00;5091641;28;20101;-61
2022/02/03 20:19:49;;;;;;;23.48;17.10;;;;;;;8.48;78.00;99371.91;5089883;28;20116;-61
2022/02/03 20:22:17;;;;;;;26.23;17.67;;;;;;;8.48;78.26;99369.28;5091231;28;20044;-61
2022/02/03 20:24:44;;;;;;;22.08;18.17;;;;;;;8.50;78.05;99366.59;5091549;28;20065;-59
2022/02/03 20:27:11;;;;;;;25.73;18.35;;;;;;;8.52;78.18;99367.38;5090748;28;20054;-61
2022/02/03 20:29:38;;;;;;;22.88;17.20;;;;;;;8.53;78.31;99375.19;5089740;28;20056;-59
2022/02/03 20:32:04;;;;;;;22.33;17.83;;;;;;;8.55;78.15;99372.44;5091080;28;20052;-62
2022/02/03 20:34:31;;;;;;;23.67;18.17;;;;;;;8.55;77.85;99373.31;5091291;28;20073;-59
2022/02/03 20:36:58;;;;;;;24.00;17.75;;;;;;;8.56;77.97;99372.38;5090935;28;20044;-59
2022/02/03 20:39:24;;;;;;;24.45;17.77;;;;;;;8.58;77.92;99375.78;5089586;28;20443;-62
2022/02/03 20:41:51;;;;;;;26.33;17.75;;;;;;;8.59;77.89;99371.34;5088101;28;20048;-59
2022/02/03 20:44:18;;;;;;;24.90;17.58;;;;;;;8.60;77.87;99375.69;5091260;28;20101;-60
2022/02/03 20:46:45;;;;;;;22.77;18.33;;;;;;;8.60;77.62;99388.81;5091222;28;20078;-62
2022/02/03 20:49:13;;;;;;;22.88;17.45;;;;;;;8.60;77.87;99375.69;5090719;28;20075;-60
2022/02/03 20:51:41;;;;;;;25.10;17.42;;;;;;;8.60;77.91;99376.53;5090437;28;20056;-60
2022/02/03 20:54:08;;;;;;;24.70;17.17;;;;;;;8.59;77.63;99377.47;5090862;28;20492;-60
2022/02/03 20:56:36;;;;;;;23.77;18.50;;;;;;;8.60;77.61;99370.44;5090738;28;20100;-62
2022/02/03 20:59:07;;;;;;;24.80;18.58;;;;;;;8.60;77.61;99373.06;5089532;28;20452;-64
2022/02/03 21:01:38;;;;;;;24.15;17.65;;;;;;;8.58;77.90;99367.91;5090737;28;20496;-60
2022/02/03 21:04:11;;;;;;;29.30;19.52;;;;;;;8.58;77.64;99372.28;5091010;28;20134;-60
2022/02/03 21:06:39;;;;;;;24.08;18.55;;;;;;;8.57;77.81;99367.97;5089222;28;20052;-59
2022/02/03 21:09:08;;;;;;;26.80;18.33;;;;;;;8.58;77.93;99359.19;5089575;28;20044;-65
2022/02/03 21:11:35;;;;;;;22.40;17.48;;;;;;;8.57;77.86;99370.59;5089177;28;20673;-60
2022/02/03 21:14:07;;;;;;;24.07;18.93;;;;;;;8.57;77.94;99371.44;5090779;28;20094;-61
2022/02/03 21:16:34;;;;;;;27.75;19.70;;;;;;;8.57;77.83;99370.59;5090480;28;20294;-62
2022/02/03 21:19:01;;;;;;;25.58;19.52;;;;;;;8.56;77.57;99371.53;5090688;28;20139;-60
2022/02/03 21:21:30;;;;;;;28.08;20.33;;;;;;;8.54;77.99;99369.00;5089849;28;20063;-60
2022/02/03 21:23:57;;;;;;;26.00;18.90;;;;;;;8.55;77.87;99364.59;5089579;28;20055;-59
2022/02/03 21:26:33;;;;;;;29.33;20.67;;;;;;;8.54;77.86;99376.00;5090043;28;20694;-61
2022/02/03 21:28:59;;;;;;;32.40;21.17;;;;;;;8.54;78.12;99362.91;5089563;28;20052;-60
2022/02/03 21:31:26;;;;;;;26.65;19.95;;;;;;;8.54;77.94;99355.88;5089698;28;20097;-61
2022/02/03 21:33:56;;;;;;;26.80;19.55;;;;;;;8.55;78.15;99354.09;5090323;28;20040;-62
2022/02/03 21:36:25;;;;;;;29.48;21.23;;;;;;;8.55;77.67;99364.59;5089073;28;20052;-61
2022/02/03 21:38:52;;;;;;;30.42;21.60;;;;;;;8.56;77.91;99358.44;5089208;28;20055;-59
2022/02/03 21:41:18;;;;;;;29.13;21.38;;;;;;;8.56;78.03;99358.44;5087045;28;20056;-62
2022/02/03 21:43:48;;;;;;;29.63;21.05;;;;;;;8.55;78.08;99361.97;5090159;28;20573;-59
2022/02/03 21:46:16;;;;;;;28.38;20.42;;;;;;;8.55;77.76;99354.09;5089545;28;20518;-59
2022/02/03 21:48:48;;;;;;;31.15;23.00;;;;;;;8.55;78.01;99356.72;5090202;28;20416;-59
2022/02/03 21:51:22;;;;;;;27.98;20.85;;;;;;;8.53;77.82;99363.84;5091347;28;20076;-62
2022/02/03 21:53:50;;;;;;;30.33;22.52;;;;;;;8.54;78.01;99348.00;5094237;28;20142;-61
2022/02/03 21:56:19;;;;;;;29.80;22.05;;;;;;;8.56;77.87;99366.28;5092675;28;20177;-60
2022/02/03 21:58:47;;;;;;;33.08;22.77;;;;;;;8.55;77.97;99354.09;5091411;28;20052;-59
2022/02/03 22:01:13;;;;;;;30.23;22.60;;;;;;;8.55;78.02;99362.81;5094237;28;20052;-60
2022/02/03 22:03:40;;;;;;;29.35;21.30;;;;;;;8.56;78.28;99355.81;5094636;28;20060;-60
2022/02/03 22:06:06;;;;;;;31.60;21.95;;;;;;;8.57;78.29;99360.94;5094046;28;20044;-60
2022/02/03 22:08:33;;;;;;;31.05;21.33;;;;;;;8.59;78.24;99360.84;5093479;28;20044;-62
2022/02/03 22:11:01;;;;;;;31.48;22.02;;;;;;;8.59;78.02;99353.00;5092595;28;20044;-59
2022/02/03 22:13:35;;;;;;;29.50;21.83;;;;;;;8.62;78.19;99360.69;5093885;28;20051;-61